sensor_id;sensor_type;location;lat;lon;timestamp;P1;durP1;ratioP1;P2;durP2;ratioP2
63312;SDS011;49442;45.640;13.812;2023-07-13T00:00:34;18.83;;;5.30;;
63312;SDS011;49442;45.640;13.812;2023-07-13T00:03:01;10.52;;;5.65;;
63312;SDS011;49442;45.640;13.812;2023-07-13T00:05:27;16.02;;;6.13;;
63312;SDS011;49442;45.640;13.812;2023-07-13T00:07:53;17.10;;;6.93;;
63312;SDS011;49442;45.640;13.812;2023-07-13T00:10:19;11.70;;;6.07;;
63312;SDS011;49442;45.640;13.812;2023-07-13T00:12:45;17.00;;;6.25;;
63312;SDS011;49442;45.640;13.812;2023-07-13T00:15:32;14.05;;;5.90;;
63312;SDS011;49442;45.640;13.812;2023-07-13T00:17:57;16.08;;;6.15;;
63312;SDS011;49442;45.640;13.812;2023-07-13T00:20:26;13.10;;;5.15;;
63312;SDS011;49442;45.640;13.812;2023-07-13T00:22:52;10.02;;;6.07;;
63312;SDS011;49442;45.640;13.812;2023-07-13T00:25:19;22.13;;;5.75;;
63312;SDS011;49442;45.640;13.812;2023-07-13T00:27:53;16.90;;;5.68;;
63312;SDS011;49442;45.640;13.812;2023-07-13T00:30:19;11.13;;;5.65;;
63312;SDS011;49442;45.640;13.812;2023-07-13T00:32:45;10.80;;;6.25;;
63312;SDS011;49442;45.640;13.812;2023-07-13T00:35:12;12.32;;;5.97;;
63312;SDS011;49442;45.640;13.812;2023-07-13T00:37:39;13.23;;;6.38;;
63312;SDS011;49442;45.640;13.812;2023-07-13T00:40:05;13.23;;;5.70;;
63312;SDS011;49442;45.640;13.812;2023-07-13T00:42:31;9.80;;;5.43;;
63312;SDS011;49442;45.640;13.812;2023-07-13T00:45:01;17.05;;;6.53;;
63312;SDS011;49442;45.640;13.812;2023-07-13T00:47:26;10.80;;;5.97;;
63312;SDS011;49442;45.640;13.812;2023-07-13T00:49:52;16.35;;;5.50;;
63312;SDS011;49442;45.640;13.812;2023-07-13T00:52:18;10.65;;;5.60;;
63312;SDS011;49442;45.640;13.812;2023-07-13T00:54:44;12.15;;;5.32;;
63312;SDS011;49442;45.640;13.812;2023-07-13T00:57:12;20.05;;;5.93;;
63312;SDS011;49442;45.640;13.812;2023-07-13T00:59:42;9.75;;;5.28;;
63312;SDS011;49442;45.640;13.812;2023-07-13T01:02:10;12.25;;;6.15;;
63312;SDS011;49442;45.640;13.812;2023-07-13T01:04:37;9.70;;;5.40;;
63312;SDS011;49442;45.640;13.812;2023-07-13T01:07:03;13.38;;;5.70;;
63312;SDS011;49442;45.640;13.812;2023-07-13T01:09:30;11.05;;;5.68;;
63312;SDS011;49442;45.640;13.812;2023-07-13T01:11:55;15.38;;;6.00;;
63312;SDS011;49442;45.640;13.812;2023-07-13T01:14:21;11.90;;;5.68;;
63312;SDS011;49442;45.640;13.812;2023-07-13T01:16:47;11.00;;;5.75;;
63312;SDS011;49442;45.640;13.812;2023-07-13T01:19:35;7.70;;;5.40;;
63312;SDS011;49442;45.640;13.812;2023-07-13T01:22:08;10.98;;;5.47;;
63312;SDS011;49442;45.640;13.812;2023-07-13T01:24:39;9.57;;;5.22;;
63312;SDS011;49442;45.640;13.812;2023-07-13T01:27:07;12.20;;;5.15;;
63312;SDS011;49442;45.640;13.812;2023-07-13T01:29:35;19.92;;;5.63;;
63312;SDS011;49442;45.640;13.812;2023-07-13T01:32:10;14.00;;;5.15;;
63312;SDS011;49442;45.640;13.812;2023-07-13T01:37:07;12.85;;;5.30;;
63312;SDS011;49442;45.640;13.812;2023-07-13T01:39:34;12.68;;;5.28;;
63312;SDS011;49442;45.640;13.812;2023-07-13T01:42:01;10.63;;;5.30;;
63312;SDS011;49442;45.640;13.812;2023-07-13T01:44:26;11.27;;;6.03;;
63312;SDS011;49442;45.640;13.812;2023-07-13T01:46:52;10.27;;;5.05;;
63312;SDS011;49442;45.640;13.812;2023-07-13T01:49:18;11.70;;;4.72;;
63312;SDS011;49442;45.640;13.812;2023-07-13T01:51:44;10.13;;;4.40;;
63312;SDS011;49442;45.640;13.812;2023-07-13T01:54:10;9.68;;;4.47;;
63312;SDS011;49442;45.640;13.812;2023-07-13T01:56:36;9.10;;;4.20;;
63312;SDS011;49442;45.640;13.812;2023-07-13T01:59:01;13.40;;;4.30;;
63312;SDS011;49442;45.640;13.812;2023-07-13T02:01:27;16.10;;;5.05;;
63312;SDS011;49442;45.640;13.812;2023-07-13T02:03:53;14.43;;;4.43;;
63312;SDS011;49442;45.640;13.812;2023-07-13T02:06:19;11.93;;;4.07;;
63312;SDS011;49442;45.640;13.812;2023-07-13T02:08:44;13.90;;;4.30;;
63312;SDS011;49442;45.640;13.812;2023-07-13T02:11:10;13.48;;;4.80;;
63312;SDS011;49442;45.640;13.812;2023-07-13T02:13:36;14.43;;;5.00;;
63312;SDS011;49442;45.640;13.812;2023-07-13T02:16:02;10.32;;;5.63;;
63312;SDS011;49442;45.640;13.812;2023-07-13T02:18:28;8.80;;;4.82;;
63312;SDS011;49442;45.640;13.812;2023-07-13T02:20:54;19.05;;;5.97;;
63312;SDS011;49442;45.640;13.812;2023-07-13T02:23:19;11.75;;;5.38;;
63312;SDS011;49442;45.640;13.812;2023-07-13T02:25:48;11.30;;;4.55;;
63312;SDS011;49442;45.640;13.812;2023-07-13T02:28:14;9.07;;;5.60;;
63312;SDS011;49442;45.640;13.812;2023-07-13T02:30:40;12.10;;;5.53;;
63312;SDS011;49442;45.640;13.812;2023-07-13T02:33:06;12.60;;;5.60;;
63312;SDS011;49442;45.640;13.812;2023-07-13T02:35:31;7.30;;;4.97;;
63312;SDS011;49442;45.640;13.812;2023-07-13T02:37:57;11.98;;;5.93;;
63312;SDS011;49442;45.640;13.812;2023-07-13T02:40:23;10.48;;;5.13;;
63312;SDS011;49442;45.640;13.812;2023-07-13T02:42:49;11.13;;;5.65;;
63312;SDS011;49442;45.640;13.812;2023-07-13T02:45:14;14.63;;;6.25;;
63312;SDS011;49442;45.640;13.812;2023-07-13T02:47:41;10.90;;;6.03;;
63312;SDS011;49442;45.640;13.812;2023-07-13T02:50:07;10.93;;;5.95;;
63312;SDS011;49442;45.640;13.812;2023-07-13T02:52:34;9.85;;;5.55;;
63312;SDS011;49442;45.640;13.812;2023-07-13T02:54:59;11.52;;;6.45;;
63312;SDS011;49442;45.640;13.812;2023-07-13T02:57:25;13.95;;;6.38;;
63312;SDS011;49442;45.640;13.812;2023-07-13T02:59:52;12.05;;;6.35;;
63312;SDS011;49442;45.640;13.812;2023-07-13T03:02:17;12.30;;;6.38;;
63312;SDS011;49442;45.640;13.812;2023-07-13T03:04:43;12.20;;;6.30;;
63312;SDS011;49442;45.640;13.812;2023-07-13T03:07:09;11.55;;;5.88;;
63312;SDS011;49442;45.640;13.812;2023-07-13T03:09:35;15.13;;;5.90;;
63312;SDS011;49442;45.640;13.812;2023-07-13T03:12:01;10.50;;;6.05;;
63312;SDS011;49442;45.640;13.812;2023-07-13T03:14:27;12.00;;;6.50;;
63312;SDS011;49442;45.640;13.812;2023-07-13T03:16:52;10.32;;;6.03;;
63312;SDS011;49442;45.640;13.812;2023-07-13T03:19:18;8.02;;;5.63;;
63312;SDS011;49442;45.640;13.812;2023-07-13T03:21:47;15.80;;;6.43;;
63312;SDS011;49442;45.640;13.812;2023-07-13T03:24:13;13.02;;;6.47;;
63312;SDS011;49442;45.640;13.812;2023-07-13T03:26:39;11.65;;;6.22;;
63312;SDS011;49442;45.640;13.812;2023-07-13T03:29:05;10.15;;;6.32;;
63312;SDS011;49442;45.640;13.812;2023-07-13T03:31:32;12.45;;;6.60;;
63312;SDS011;49442;45.640;13.812;2023-07-13T03:33:59;9.80;;;6.00;;
63312;SDS011;49442;45.640;13.812;2023-07-13T03:36:25;12.25;;;7.25;;
63312;SDS011;49442;45.640;13.812;2023-07-13T03:38:54;9.38;;;6.30;;
63312;SDS011;49442;45.640;13.812;2023-07-13T03:41:23;10.18;;;6.05;;
63312;SDS011;49442;45.640;13.812;2023-07-13T03:43:49;14.73;;;5.88;;
63312;SDS011;49442;45.640;13.812;2023-07-13T03:46:16;11.13;;;6.53;;
63312;SDS011;49442;45.640;13.812;2023-07-13T03:48:43;14.25;;;6.47;;
63312;SDS011;49442;45.640;13.812;2023-07-13T03:51:10;10.00;;;6.07;;
63312;SDS011;49442;45.640;13.812;2023-07-13T03:53:39;12.48;;;6.53;;
63312;SDS011;49442;45.640;13.812;2023-07-13T03:56:07;9.38;;;6.38;;
63312;SDS011;49442;45.640;13.812;2023-07-13T03:58:34;8.30;;;6.15;;
63312;SDS011;49442;45.640;13.812;2023-07-13T04:01:02;6.63;;;5.80;;
63312;SDS011;49442;45.640;13.812;2023-07-13T04:03:30;13.10;;;6.03;;
63312;SDS011;49442;45.640;13.812;2023-07-13T04:05:58;11.52;;;6.50;;
63312;SDS011;49442;45.640;13.812;2023-07-13T04:08:35;10.25;;;5.90;;
63312;SDS011;49442;45.640;13.812;2023-07-13T04:11:02;9.18;;;5.60;;
63312;SDS011;49442;45.640;13.812;2023-07-13T04:13:29;10.02;;;6.13;;
63312;SDS011;49442;45.640;13.812;2023-07-13T04:15:55;10.30;;;6.45;;
63312;SDS011;49442;45.640;13.812;2023-07-13T04:18:20;10.80;;;6.53;;
63312;SDS011;49442;45.640;13.812;2023-07-13T04:20:47;14.50;;;5.75;;
63312;SDS011;49442;45.640;13.812;2023-07-13T04:23:14;10.35;;;5.80;;
63312;SDS011;49442;45.640;13.812;2023-07-13T04:25:44;9.02;;;5.85;;
63312;SDS011;49442;45.640;13.812;2023-07-13T04:28:11;8.63;;;5.65;;
63312;SDS011;49442;45.640;13.812;2023-07-13T04:30:37;10.75;;;5.75;;
63312;SDS011;49442;45.640;13.812;2023-07-13T04:33:02;7.97;;;5.55;;
63312;SDS011;49442;45.640;13.812;2023-07-13T04:35:29;13.25;;;6.53;;
63312;SDS011;49442;45.640;13.812;2023-07-13T04:37:56;11.25;;;6.18;;
63312;SDS011;49442;45.640;13.812;2023-07-13T04:40:22;13.00;;;5.75;;
63312;SDS011;49442;45.640;13.812;2023-07-13T04:42:47;9.27;;;6.22;;
63312;SDS011;49442;45.640;13.812;2023-07-13T04:45:14;9.77;;;5.95;;
63312;SDS011;49442;45.640;13.812;2023-07-13T04:47:40;10.07;;;5.68;;
63312;SDS011;49442;45.640;13.812;2023-07-13T04:50:06;11.27;;;6.13;;
63312;SDS011;49442;45.640;13.812;2023-07-13T04:52:34;11.38;;;5.70;;
63312;SDS011;49442;45.640;13.812;2023-07-13T04:55:00;9.10;;;5.65;;
63312;SDS011;49442;45.640;13.812;2023-07-13T04:57:26;12.60;;;5.72;;
63312;SDS011;49442;45.640;13.812;2023-07-13T04:59:52;9.07;;;5.22;;
63312;SDS011;49442;45.640;13.812;2023-07-13T05:02:20;10.88;;;5.60;;
63312;SDS011;49442;45.640;13.812;2023-07-13T05:04:46;12.05;;;5.95;;
63312;SDS011;49442;45.640;13.812;2023-07-13T05:07:12;8.45;;;6.05;;
63312;SDS011;49442;45.640;13.812;2023-07-13T05:09:38;12.90;;;5.55;;
63312;SDS011;49442;45.640;13.812;2023-07-13T05:12:05;10.55;;;6.50;;
63312;SDS011;49442;45.640;13.812;2023-07-13T05:14:36;12.18;;;6.13;;
63312;SDS011;49442;45.640;13.812;2023-07-13T05:17:02;12.90;;;5.85;;
63312;SDS011;49442;45.640;13.812;2023-07-13T05:19:28;8.63;;;6.00;;
63312;SDS011;49442;45.640;13.812;2023-07-13T05:21:53;14.15;;;5.60;;
63312;SDS011;49442;45.640;13.812;2023-07-13T05:24:19;10.55;;;5.57;;
63312;SDS011;49442;45.640;13.812;2023-07-13T05:26:45;15.10;;;6.20;;
63312;SDS011;49442;45.640;13.812;2023-07-13T05:29:11;12.98;;;5.68;;
63312;SDS011;49442;45.640;13.812;2023-07-13T05:31:36;12.07;;;5.88;;
63312;SDS011;49442;45.640;13.812;2023-07-13T05:34:02;9.57;;;6.25;;
63312;SDS011;49442;45.640;13.812;2023-07-13T05:36:28;12.63;;;5.45;;
63312;SDS011;49442;45.640;13.812;2023-07-13T05:38:54;8.27;;;5.78;;
63312;SDS011;49442;45.640;13.812;2023-07-13T05:41:19;10.48;;;5.70;;
63312;SDS011;49442;45.640;13.812;2023-07-13T05:43:45;14.70;;;6.72;;
63312;SDS011;49442;45.640;13.812;2023-07-13T05:46:11;8.65;;;5.90;;
63312;SDS011;49442;45.640;13.812;2023-07-13T05:48:36;8.73;;;5.80;;
63312;SDS011;49442;45.640;13.812;2023-07-13T05:51:02;15.60;;;5.97;;
63312;SDS011;49442;45.640;13.812;2023-07-13T05:53:28;9.13;;;5.18;;
63312;SDS011;49442;45.640;13.812;2023-07-13T05:55:54;15.98;;;6.07;;
63312;SDS011;49442;45.640;13.812;2023-07-13T05:58:20;8.52;;;5.25;;
63312;SDS011;49442;45.640;13.812;2023-07-13T06:00:47;9.95;;;5.85;;
63312;SDS011;49442;45.640;13.812;2023-07-13T06:03:12;9.10;;;5.70;;
63312;SDS011;49442;45.640;13.812;2023-07-13T06:05:39;9.52;;;5.45;;
63312;SDS011;49442;45.640;13.812;2023-07-13T06:08:05;12.00;;;6.03;;
63312;SDS011;49442;45.640;13.812;2023-07-13T06:10:35;19.17;;;6.03;;
63312;SDS011;49442;45.640;13.812;2023-07-13T06:13:01;14.25;;;6.00;;
63312;SDS011;49442;45.640;13.812;2023-07-13T06:15:28;9.55;;;6.30;;
63312;SDS011;49442;45.640;13.812;2023-07-13T06:17:53;10.23;;;6.05;;
63312;SDS011;49442;45.640;13.812;2023-07-13T06:20:19;10.93;;;5.78;;
63312;SDS011;49442;45.640;13.812;2023-07-13T06:22:45;8.02;;;5.25;;
63312;SDS011;49442;45.640;13.812;2023-07-13T06:25:10;20.63;;;6.15;;
63312;SDS011;49442;45.640;13.812;2023-07-13T06:27:36;16.98;;;6.40;;
63312;SDS011;49442;45.640;13.812;2023-07-13T06:30:02;14.70;;;6.00;;
63312;SDS011;49442;45.640;13.812;2023-07-13T06:32:28;14.80;;;5.88;;
63312;SDS011;49442;45.640;13.812;2023-07-13T06:34:53;17.48;;;5.82;;
63312;SDS011;49442;45.640;13.812;2023-07-13T06:37:19;9.48;;;5.93;;
63312;SDS011;49442;45.640;13.812;2023-07-13T06:39:45;15.98;;;6.68;;
63312;SDS011;49442;45.640;13.812;2023-07-13T06:42:10;16.83;;;5.78;;
63312;SDS011;49442;45.640;13.812;2023-07-13T06:44:36;10.35;;;5.47;;
63312;SDS011;49442;45.640;13.812;2023-07-13T06:47:02;16.83;;;6.20;;
63312;SDS011;49442;45.640;13.812;2023-07-13T06:49:28;10.32;;;5.22;;
63312;SDS011;49442;45.640;13.812;2023-07-13T06:51:53;14.40;;;5.75;;
63312;SDS011;49442;45.640;13.812;2023-07-13T06:54:19;12.52;;;6.03;;
63312;SDS011;49442;45.640;13.812;2023-07-13T06:56:45;12.20;;;5.45;;
63312;SDS011;49442;45.640;13.812;2023-07-13T06:59:11;14.45;;;5.57;;
63312;SDS011;49442;45.640;13.812;2023-07-13T07:01:36;15.43;;;6.05;;
63312;SDS011;49442;45.640;13.812;2023-07-13T07:04:03;13.52;;;5.90;;
63312;SDS011;49442;45.640;13.812;2023-07-13T07:06:29;9.43;;;6.07;;
63312;SDS011;49442;45.640;13.812;2023-07-13T07:08:54;14.25;;;6.70;;
63312;SDS011;49442;45.640;13.812;2023-07-13T07:11:21;7.20;;;5.35;;
63312;SDS011;49442;45.640;13.812;2023-07-13T07:13:51;13.47;;;5.87;;
63312;SDS011;49442;45.640;13.812;2023-07-13T07:16:18;10.35;;;5.72;;
63312;SDS011;49442;45.640;13.812;2023-07-13T07:18:45;13.70;;;5.35;;
63312;SDS011;49442;45.640;13.812;2023-07-13T07:21:11;10.85;;;6.45;;
63312;SDS011;49442;45.640;13.812;2023-07-13T07:23:37;14.05;;;6.40;;
63312;SDS011;49442;45.640;13.812;2023-07-13T07:26:03;7.85;;;5.30;;
63312;SDS011;49442;45.640;13.812;2023-07-13T07:28:29;11.57;;;5.78;;
63312;SDS011;49442;45.640;13.812;2023-07-13T07:30:56;10.48;;;5.90;;
63312;SDS011;49442;45.640;13.812;2023-07-13T07:33:23;13.45;;;5.35;;
63312;SDS011;49442;45.640;13.812;2023-07-13T07:35:50;11.95;;;5.53;;
63312;SDS011;49442;45.640;13.812;2023-07-13T07:38:16;11.15;;;5.75;;
63312;SDS011;49442;45.640;13.812;2023-07-13T07:40:42;23.60;;;6.55;;
63312;SDS011;49442;45.640;13.812;2023-07-13T07:43:09;18.60;;;6.35;;
63312;SDS011;49442;45.640;13.812;2023-07-13T07:45:39;11.48;;;5.82;;
63312;SDS011;49442;45.640;13.812;2023-07-13T07:48:05;15.48;;;5.68;;
63312;SDS011;49442;45.640;13.812;2023-07-13T07:50:32;14.70;;;5.00;;
63312;SDS011;49442;45.640;13.812;2023-07-13T07:52:58;12.25;;;5.97;;
63312;SDS011;49442;45.640;13.812;2023-07-13T07:55:24;14.15;;;6.00;;
63312;SDS011;49442;45.640;13.812;2023-07-13T07:57:53;14.20;;;6.05;;
63312;SDS011;49442;45.640;13.812;2023-07-13T08:00:20;9.90;;;5.75;;
63312;SDS011;49442;45.640;13.812;2023-07-13T08:02:46;10.93;;;5.95;;
63312;SDS011;49442;45.640;13.812;2023-07-13T08:05:11;14.73;;;6.00;;
63312;SDS011;49442;45.640;13.812;2023-07-13T08:07:37;12.85;;;5.95;;
63312;SDS011;49442;45.640;13.812;2023-07-13T08:10:04;13.18;;;6.80;;
63312;SDS011;49442;45.640;13.812;2023-07-13T08:12:33;9.18;;;5.05;;
63312;SDS011;49442;45.640;13.812;2023-07-13T08:15:02;10.20;;;5.40;;
63312;SDS011;49442;45.640;13.812;2023-07-13T08:17:29;18.45;;;7.03;;
63312;SDS011;49442;45.640;13.812;2023-07-13T08:19:54;15.88;;;6.25;;
63312;SDS011;49442;45.640;13.812;2023-07-13T08:22:20;10.45;;;5.80;;
63312;SDS011;49442;45.640;13.812;2023-07-13T08:24:46;16.45;;;6.03;;
63312;SDS011;49442;45.640;13.812;2023-07-13T08:27:12;12.63;;;5.40;;
63312;SDS011;49442;45.640;13.812;2023-07-13T08:29:38;12.27;;;5.60;;
63312;SDS011;49442;45.640;13.812;2023-07-13T08:32:04;7.88;;;5.68;;
63312;SDS011;49442;45.640;13.812;2023-07-13T08:34:34;15.02;;;5.95;;
63312;SDS011;49442;45.640;13.812;2023-07-13T08:37:01;22.60;;;6.65;;
63312;SDS011;49442;45.640;13.812;2023-07-13T08:39:27;16.55;;;6.32;;
63312;SDS011;49442;45.640;13.812;2023-07-13T08:41:56;12.57;;;6.00;;
63312;SDS011;49442;45.640;13.812;2023-07-13T08:44:50;13.40;;;6.13;;
63312;SDS011;49442;45.640;13.812;2023-07-13T08:47:19;16.52;;;6.95;;
63312;SDS011;49442;45.640;13.812;2023-07-13T08:49:50;15.90;;;6.10;;
63312;SDS011;49442;45.640;13.812;2023-07-13T08:52:21;16.42;;;6.28;;
63312;SDS011;49442;45.640;13.812;2023-07-13T08:54:51;30.05;;;7.90;;
63312;SDS011;49442;45.640;13.812;2023-07-13T08:57:20;20.65;;;6.65;;
63312;SDS011;49442;45.640;13.812;2023-07-13T08:59:53;17.40;;;6.32;;
63312;SDS011;49442;45.640;13.812;2023-07-13T09:05:30;20.00;;;6.20;;
63312;SDS011;49442;45.640;13.812;2023-07-13T09:11:04;21.38;;;6.43;;
63312;SDS011;49442;45.640;13.812;2023-07-13T09:13:47;14.05;;;6.25;;
63312;SDS011;49442;45.640;13.812;2023-07-13T09:16:16;14.63;;;5.03;;
63312;SDS011;49442;45.640;13.812;2023-07-13T09:18:44;19.98;;;7.53;;
63312;SDS011;49442;45.640;13.812;2023-07-13T09:21:15;19.02;;;6.28;;
63312;SDS011;49442;45.640;13.812;2023-07-13T09:24:24;23.00;;;6.15;;
63312;SDS011;49442;45.640;13.812;2023-07-13T09:26:58;20.17;;;6.03;;
63312;SDS011;49442;45.640;13.812;2023-07-13T09:29:29;17.92;;;6.00;;
63312;SDS011;49442;45.640;13.812;2023-07-13T09:32:00;20.15;;;6.47;;
63312;SDS011;49442;45.640;13.812;2023-07-13T09:34:29;15.30;;;6.38;;
63312;SDS011;49442;45.640;13.812;2023-07-13T09:36:56;26.58;;;6.40;;
63312;SDS011;49442;45.640;13.812;2023-07-13T09:39:38;17.05;;;6.55;;
63312;SDS011;49442;45.640;13.812;2023-07-13T09:42:14;27.05;;;6.82;;
63312;SDS011;49442;45.640;13.812;2023-07-13T09:47:17;16.77;;;6.40;;
63312;SDS011;49442;45.640;13.812;2023-07-13T09:49:48;15.13;;;6.82;;
63312;SDS011;49442;45.640;13.812;2023-07-13T09:52:20;17.15;;;6.90;;
63312;SDS011;49442;45.640;13.812;2023-07-13T09:54:48;20.38;;;6.72;;
63312;SDS011;49442;45.640;13.812;2023-07-13T09:57:19;14.70;;;6.18;;
63312;SDS011;49442;45.640;13.812;2023-07-13T09:59:49;17.95;;;6.47;;
63312;SDS011;49442;45.640;13.812;2023-07-13T10:05:07;18.85;;;6.35;;
63312;SDS011;49442;45.640;13.812;2023-07-13T10:07:43;14.43;;;6.45;;
63312;SDS011;49442;45.640;13.812;2023-07-13T10:10:20;10.63;;;6.32;;
63312;SDS011;49442;45.640;13.812;2023-07-13T10:13:01;15.50;;;6.55;;
63312;SDS011;49442;45.640;13.812;2023-07-13T10:15:30;16.00;;;7.35;;
63312;SDS011;49442;45.640;13.812;2023-07-13T10:17:56;23.17;;;7.22;;
63312;SDS011;49442;45.640;13.812;2023-07-13T10:20:23;16.98;;;6.13;;
63312;SDS011;49442;45.640;13.812;2023-07-13T10:25:24;15.23;;;7.32;;
63312;SDS011;49442;45.640;13.812;2023-07-13T10:27:52;15.25;;;6.30;;
63312;SDS011;49442;45.640;13.812;2023-07-13T10:30:25;20.00;;;6.53;;
63312;SDS011;49442;45.640;13.812;2023-07-13T10:32:57;14.77;;;6.43;;
63312;SDS011;49442;45.640;13.812;2023-07-13T10:35:25;17.02;;;6.75;;
63312;SDS011;49442;45.640;13.812;2023-07-13T10:37:55;12.65;;;6.50;;
63312;SDS011;49442;45.640;13.812;2023-07-13T10:40:35;16.02;;;7.07;;
63312;SDS011;49442;45.640;13.812;2023-07-13T10:43:06;16.95;;;6.93;;
63312;SDS011;49442;45.640;13.812;2023-07-13T10:45:52;13.68;;;7.30;;
63312;SDS011;49442;45.640;13.812;2023-07-13T10:48:19;15.60;;;7.32;;
63312;SDS011;49442;45.640;13.812;2023-07-13T10:50:48;15.50;;;6.47;;
63312;SDS011;49442;45.640;13.812;2023-07-13T10:58:19;12.27;;;6.03;;
63312;SDS011;49442;45.640;13.812;2023-07-13T11:01:09;17.23;;;6.65;;
63312;SDS011;49442;45.640;13.812;2023-07-13T11:03:38;16.77;;;6.68;;
63312;SDS011;49442;45.640;13.812;2023-07-13T11:11:46;15.43;;;7.13;;
63312;SDS011;49442;45.640;13.812;2023-07-13T11:16:55;15.05;;;6.45;;
63312;SDS011;49442;45.640;13.812;2023-07-13T11:22:01;17.30;;;6.32;;
63312;SDS011;49442;45.640;13.812;2023-07-13T11:27:46;19.83;;;6.63;;
63312;SDS011;49442;45.640;13.812;2023-07-13T11:32:41;16.48;;;7.55;;
63312;SDS011;49442;45.640;13.812;2023-07-13T11:35:15;17.63;;;7.07;;
63312;SDS011;49442;45.640;13.812;2023-07-13T11:37:50;12.60;;;6.78;;
63312;SDS011;49442;45.640;13.812;2023-07-13T11:40:17;15.05;;;7.68;;
63312;SDS011;49442;45.640;13.812;2023-07-13T11:42:45;13.75;;;6.55;;
63312;SDS011;49442;45.640;13.812;2023-07-13T11:45:19;18.98;;;8.02;;
63312;SDS011;49442;45.640;13.812;2023-07-13T11:47:48;18.52;;;8.05;;
63312;SDS011;49442;45.640;13.812;2023-07-13T11:50:21;13.90;;;7.50;;
63312;SDS011;49442;45.640;13.812;2023-07-13T11:52:49;21.45;;;8.27;;
63312;SDS011;49442;45.640;13.812;2023-07-13T11:55:19;19.98;;;7.43;;
63312;SDS011;49442;45.640;13.812;2023-07-13T11:57:51;18.13;;;7.47;;
63312;SDS011;49442;45.640;13.812;2023-07-13T12:00:28;21.10;;;7.15;;
63312;SDS011;49442;45.640;13.812;2023-07-13T12:02:59;27.73;;;6.72;;
63312;SDS011;49442;45.640;13.812;2023-07-13T12:05:27;21.20;;;7.28;;
63312;SDS011;49442;45.640;13.812;2023-07-13T12:07:54;30.20;;;7.75;;
63312;SDS011;49442;45.640;13.812;2023-07-13T12:10:27;14.70;;;6.65;;
63312;SDS011;49442;45.640;13.812;2023-07-13T12:13:04;17.70;;;6.40;;
63312;SDS011;49442;45.640;13.812;2023-07-13T12:18:02;17.05;;;6.45;;
63312;SDS011;49442;45.640;13.812;2023-07-13T12:20:37;17.08;;;7.15;;
63312;SDS011;49442;45.640;13.812;2023-07-13T12:25:50;19.33;;;7.53;;
63312;SDS011;49442;45.640;13.812;2023-07-13T12:28:21;15.95;;;6.80;;
63312;SDS011;49442;45.640;13.812;2023-07-13T12:31:29;22.45;;;7.50;;
63312;SDS011;49442;45.640;13.812;2023-07-13T12:36:34;14.27;;;6.78;;
63312;SDS011;49442;45.640;13.812;2023-07-13T12:39:45;15.98;;;8.02;;
63312;SDS011;49442;45.640;13.812;2023-07-13T12:44:46;25.17;;;8.55;;
63312;SDS011;49442;45.640;13.812;2023-07-13T12:47:13;16.27;;;9.20;;
63312;SDS011;49442;45.640;13.812;2023-07-13T12:49:42;27.83;;;9.10;;
63312;SDS011;49442;45.640;13.812;2023-07-13T12:52:13;26.27;;;6.88;;
63312;SDS011;49442;45.640;13.812;2023-07-13T12:54:41;22.38;;;6.88;;
63312;SDS011;49442;45.640;13.812;2023-07-13T12:57:08;18.80;;;6.90;;
63312;SDS011;49442;45.640;13.812;2023-07-13T12:59:41;19.60;;;7.00;;
63312;SDS011;49442;45.640;13.812;2023-07-13T13:02:30;23.90;;;7.40;;
63312;SDS011;49442;45.640;13.812;2023-07-13T13:04:59;15.25;;;5.50;;
63312;SDS011;49442;45.640;13.812;2023-07-13T13:07:26;14.05;;;5.45;;
63312;SDS011;49442;45.640;13.812;2023-07-13T13:09:52;14.50;;;5.55;;
63312;SDS011;49442;45.640;13.812;2023-07-13T13:12:21;15.85;;;5.80;;
63312;SDS011;49442;45.640;13.812;2023-07-13T13:14:49;15.25;;;5.68;;
63312;SDS011;49442;45.640;13.812;2023-07-13T13:17:22;14.90;;;5.18;;
63312;SDS011;49442;45.640;13.812;2023-07-13T13:19:54;15.02;;;5.68;;
63312;SDS011;49442;45.640;13.812;2023-07-13T13:22:20;11.95;;;5.05;;
63312;SDS011;49442;45.640;13.812;2023-07-13T13:24:46;15.25;;;5.82;;
63312;SDS011;49442;45.640;13.812;2023-07-13T13:27:19;11.93;;;5.95;;
63312;SDS011;49442;45.640;13.812;2023-07-13T13:29:48;19.85;;;5.80;;
63312;SDS011;49442;45.640;13.812;2023-07-13T13:32:16;19.33;;;6.43;;
63312;SDS011;49442;45.640;13.812;2023-07-13T13:34:42;17.98;;;5.88;;
63312;SDS011;49442;45.640;13.812;2023-07-13T13:37:11;16.35;;;6.00;;
63312;SDS011;49442;45.640;13.812;2023-07-13T13:39:45;16.95;;;7.82;;
63312;SDS011;49442;45.640;13.812;2023-07-13T13:42:12;18.45;;;8.02;;
63312;SDS011;49442;45.640;13.812;2023-07-13T13:44:38;26.63;;;8.82;;
63312;SDS011;49442;45.640;13.812;2023-07-13T13:47:07;24.42;;;7.47;;
63312;SDS011;49442;45.640;13.812;2023-07-13T13:49:56;18.08;;;7.30;;
63312;SDS011;49442;45.640;13.812;2023-07-13T13:52:23;23.77;;;8.45;;
63312;SDS011;49442;45.640;13.812;2023-07-13T13:54:49;18.15;;;7.30;;
63312;SDS011;49442;45.640;13.812;2023-07-13T13:57:15;21.77;;;7.20;;
63312;SDS011;49442;45.640;13.812;2023-07-13T13:59:40;18.10;;;6.65;;
63312;SDS011;49442;45.640;13.812;2023-07-13T14:02:22;21.98;;;7.38;;
63312;SDS011;49442;45.640;13.812;2023-07-13T14:04:51;20.88;;;7.90;;
63312;SDS011;49442;45.640;13.812;2023-07-13T14:07:27;14.27;;;6.78;;
63312;SDS011;49442;45.640;13.812;2023-07-13T14:09:56;13.73;;;6.95;;
63312;SDS011;49442;45.640;13.812;2023-07-13T14:12:22;16.35;;;7.13;;
63312;SDS011;49442;45.640;13.812;2023-07-13T14:14:51;22.48;;;7.22;;
63312;SDS011;49442;45.640;13.812;2023-07-13T14:17:20;18.05;;;6.60;;
63312;SDS011;49442;45.640;13.812;2023-07-13T14:22:16;16.20;;;6.65;;
63312;SDS011;49442;45.640;13.812;2023-07-13T14:24:43;20.13;;;7.30;;
63312;SDS011;49442;45.640;13.812;2023-07-13T14:27:12;14.40;;;6.65;;
63312;SDS011;49442;45.640;13.812;2023-07-13T14:29:38;27.10;;;7.97;;
63312;SDS011;49442;45.640;13.812;2023-07-13T14:32:05;17.10;;;7.20;;
63312;SDS011;49442;45.640;13.812;2023-07-13T14:34:34;20.25;;;8.35;;
63312;SDS011;49442;45.640;13.812;2023-07-13T14:37:00;18.27;;;7.80;;
63312;SDS011;49442;45.640;13.812;2023-07-13T14:39:26;15.05;;;7.30;;
63312;SDS011;49442;45.640;13.812;2023-07-13T14:41:52;20.83;;;7.32;;
63312;SDS011;49442;45.640;13.812;2023-07-13T14:44:26;18.65;;;7.05;;
63312;SDS011;49442;45.640;13.812;2023-07-13T14:46:54;15.40;;;7.00;;
63312;SDS011;49442;45.640;13.812;2023-07-13T14:49:26;19.70;;;6.88;;
63312;SDS011;49442;45.640;13.812;2023-07-13T14:51:57;15.43;;;7.25;;
63312;SDS011;49442;45.640;13.812;2023-07-13T14:54:25;20.27;;;6.88;;
63312;SDS011;49442;45.640;13.812;2023-07-13T14:56:50;23.63;;;7.72;;
63312;SDS011;49442;45.640;13.812;2023-07-13T14:59:16;18.42;;;6.88;;
63312;SDS011;49442;45.640;13.812;2023-07-13T15:01:45;22.10;;;7.38;;
63312;SDS011;49442;45.640;13.812;2023-07-13T15:04:13;12.40;;;6.85;;
63312;SDS011;49442;45.640;13.812;2023-07-13T15:06:55;14.65;;;7.35;;
63312;SDS011;49442;45.640;13.812;2023-07-13T15:09:25;19.73;;;8.18;;
63312;SDS011;49442;45.640;13.812;2023-07-13T15:11:52;17.08;;;7.43;;
63312;SDS011;49442;45.640;13.812;2023-07-13T15:14:19;15.73;;;7.68;;
63312;SDS011;49442;45.640;13.812;2023-07-13T15:16:46;22.60;;;7.90;;
63312;SDS011;49442;45.640;13.812;2023-07-13T15:19:14;20.63;;;8.23;;
63312;SDS011;49442;45.640;13.812;2023-07-13T15:21:41;19.80;;;7.75;;